Date,TemperatureHighF,TemperatureAvgF,TemperatureLowF,DewpointHighF,DewpointAvgF,DewpointLowF,HumidityHigh,HumidityAvg,HumidityLow,PressureMaxIn,PressureMinIn,WindSpeedMaxMPH,WindSpeedAvgMPH,GustSpeedMaxMPH,PrecipitationSumIn
2013-1-1,32,31,30,27,25,23,87,79,74,30.11,30.01,9,1,9,0.00
2013-1-2,33,32,31,26,25,24,79,76,73,30.09,29.96,10,1,10,0.00
2013-1-3,33,31,29,25,24,22,83,74,70,29.96,29.84,8,1,8,0.01
2013-1-4,36,31,28,29,25,23,88,80,66,29.93,29.83,6,1,6,0.00
2013-1-5,32,31,30,29,27,25,90,86,80,29.89,29.74,3,0,3,0.01
2013-1-6,38,33,29,33,29,26,90,86,80,29.75,29.56,3,0,3,0.02
2013-1-7,54,44,34,48,39,31,95,85,74,29.62,29.44,13,2,13,0.12
2013-1-8,49,44,41,45,41,38,94,90,78,29.65,29.37,6,1,6,0.11
2013-1-9,45,40,36,43,38,34,95,89,81,29.42,29.17,15,1,15,0.12
2013-1-10,45,39,35,37,33,30,92,81,69,29.52,29.40,10,2,10,0.00
2013-1-11,43,34,28,32,28,25,88,79,59,29.78,29.52,8,1,8,0.01
2013-1-12,39,30,24,28,24,20,87,79,60,29.88,29.76,5,1,5,0.00
2013-1-13,34,26,21,26,21,17,87,82,72,29.97,29.87,7,1,7,0.00
2013-1-14,42,33,23,33,28,19,88,81,64,29.96,29.84,15,2,15,0.00
2013-1-15,45,38,34,38,34,31,89,85,74,30.11,29.95,9,1,9,0.00
2013-1-16,38,35,32,34,31,28,90,87,83,30.07,30.02,10,2,10,0.00
2013-1-17,32,31,31,28,28,27,88,85,83,30.08,29.91,6,1,6,0.00
2013-1-18,42,33,30,32,28,25,89,81,67,29.91,29.76,5,1,5,0.00
2013-1-19,33,31,29,29,28,26,91,87,83,29.98,29.81,9,2,9,0.00
2013-1-20,31,30,29,27,26,26,88,86,83,30.06,29.94,8,2,8,0.00
2013-1-21,31,30,29,26,26,25,87,85,81,29.95,29.83,7,1,7,0.00
2013-1-22,30,29,28,25,24,24,86,84,82,29.85,29.67,8,1,8,0.00
2013-1-23,32,30,28,29,25,23,89,83,76,29.69,29.50,5,1,6,0.00
2013-1-24,40,34,31,35,31,28,92,88,80,29.73,29.65,7,1,7,0.12
2013-1-25,40,37,35,37,35,32,93,92,90,29.65,29.44,3,0,3,0.11
2013-1-26,46,40,37,43,37,35,94,90,82,29.52,29.42,8,1,8,0.02
2013-1-27,45,40,38,39,36,35,91,85,72,29.57,29.49,10,2,10,0.01
2013-1-28,45,42,39,38,37,36,89,83,76,29.55,29.50,14,2,14,0.17
2013-1-29,50,46,42,42,40,37,84,79,71,29.84,29.55,20,5,20,0.08
2013-1-30,50,47,44,46,43,40,91,85,80,29.86,29.82,8,1,8,0.04
2013-1-31,54,48,45,45,43,41,89,81,69,29.85,29.77,10,2,10,0.01
2013-2-1,56,45,37,45,40,33,91,80,54,29.91,29.78,7,1,7,0.00
2013-2-2,53,40,32,43,35,29,92,82,65,29.94,29.76,9,1,9,0.00
2013-2-3,51,42,32,42,37,30,93,82,69,29.78,29.67,10,2,10,0.00
2013-2-4,53,45,40,43,39,35,87,80,65,29.68,29.42,5,1,5,0.00
2013-2-5,52,44,39,46,40,35,91,86,76,29.49,29.37,9,1,9,0.19
2013-2-6,50,44,40,44,40,37,93,87,76,29.57,29.37,5,1,5,0.06
2013-2-7,50,41,32,39,36,29,91,81,62,29.60,29.36,11,2,11,0.03
2013-2-8,46,37,29,37,32,26,90,81,67,29.70,29.60,13,2,13,0.01
2013-2-9,48,42,36,38,35,32,87,78,64,29.74,29.63,14,2,14,0.00
2013-2-10,51,40,32,39,34,30,92,81,64,29.80,29.71,13,2,13,0.00
2013-2-11,51,44,36,40,37,31,87,76,63,29.81,29.71,15,3,15,0.00
2013-2-12,54,48,44,45,43,40,90,81,66,29.88,29.81,14,2,14,0.00
2013-2-13,56,50,44,46,42,36,84,73,57,29.94,29.80,15,2,15,0.00
2013-2-14,56,46,40,43,39,36,87,77,62,29.99,29.93,9,2,9,0.00
2013-2-15,58,44,34,45,38,31,90,80,58,30.00,29.73,9,1,9,0.00
2013-2-16,53,43,34,45,38,31,92,83,71,29.74,29.62,13,1,13,0.01
2013-2-17,51,43,35,36,33,29,82,67,52,29.71,29.57,13,2,13,0.01
2013-2-18,48,39,34,35,32,29,85,75,59,29.57,29.25,8,1,8,0.00
2013-2-19,53,40,31,36,31,28,87,73,44,29.45,29.21,8,1,8,0.00
2013-2-20,49,40,32,38,34,28,89,80,60,29.54,29.44,11,2,11,0.03
2013-2-21,46,42,39,39,37,35,90,82,66,29.60,29.53,12,2,12,0.03
2013-2-22,46,43,40,42,39,31,91,84,63,29.59,29.27,18,2,18,0.34
2013-2-23,48,42,38,38,35,32,86,76,62,29.85,29.45,16,3,16,0.04
2013-2-24,52,43,39,37,35,33,82,73,51,29.86,29.54,9,2,9,0.00
2013-2-25,48,41,38,41,37,34,92,84,69,29.79,29.46,17,2,17,0.36
2013-2-26,50,43,38,40,36,33,87,77,61,29.84,29.72,10,2,10,0.00
2013-2-27,54,43,34,43,38,31,90,81,58,29.79,29.72,6,1,6,0.00
2013-2-28,52,46,44,50,44,41,92,90,88,29.87,29.70,3,0,3,0.45
2013-3-1,59,51,45,52,47,43,92,86,71,29.88,29.78,8,2,8,0.08
2013-3-2,56,48,43,49,44,38,93,86,74,29.78,29.55,10,2,10,0.06
2013-3-3,53,44,35,38,34,30,85,69,48,29.73,29.63,10,2,10,0.01
2013-3-4,54,40,30,33,27,21,89,64,29,29.75,29.49,14,2,14,0.00
2013-3-5,42,38,34,38,32,26,88,80,70,29.49,29.23,7,0,7,0.07
2013-3-6,40,39,37,37,36,34,91,89,87,29.23,29.09,3,0,3,0.49
2013-3-7,57,46,37,38,35,32,84,67,44,29.53,29.47,6,1,6,0.00
2013-3-8,60,43,31,40,34,28,90,71,40,29.67,29.50,7,1,7,0.00
2013-3-9,62,46,31,39,33,28,89,64,34,29.93,29.67,8,2,8,0.00
2013-3-10,55,47,39,43,38,33,87,72,54,29.93,29.84,13,3,13,0.00
2013-3-11,54,50,46,47,45,42,88,83,72,29.87,29.69,10,2,10,0.00
2013-3-12,62,54,48,51,48,45,91,80,62,29.70,29.60,15,2,15,0.00
2013-3-13,51,50,49,46,45,44,84,82,81,29.66,29.63,8,2,8,0.00
2013-3-15,63,58,50,50,47,44,83,67,59,29.64,29.59,10,2,10,0.00
2013-3-16,52,48,39,47,43,34,88,82,71,29.60,29.40,20,2,20,0.26
2013-3-17,47,42,37,38,35,33,88,78,67,29.69,29.51,14,2,14,0.08
2013-3-18,55,46,38,38,35,32,82,69,50,29.70,29.65,16,2,16,0.02
2013-3-19,49,41,34,39,34,30,88,77,55,29.69,29.25,8,1,8,0.23
2013-3-20,54,44,39,46,38,34,93,82,59,29.54,29.05,21,2,21,0.49
2013-3-21,50,42,38,40,35,31,84,77,62,29.70,29.54,15,2,15,0.04
2013-3-22,52,42,36,35,32,30,82,70,48,29.84,29.68,10,2,11,0.00
2013-3-23,53,40,34,34,31,24,86,71,36,29.85,29.73,6,1,7,0.00
2013-3-24,52,41,31,34,29,26,86,66,37,29.79,29.63,9,1,9,0.00
2013-3-25,60,47,34,42,33,27,79,60,36,29.63,29.42,10,2,10,0.00
2013-3-26,57,48,40,42,39,35,84,72,53,29.49,29.42,8,1,8,0.01
2013-3-27,67,52,43,47,43,39,88,73,43,29.47,29.37,10,1,10,0.00
2013-3-28,67,54,46,50,46,43,91,75,46,29.59,29.47,10,1,10,0.01
2013-3-29,73,58,48,50,46,43,85,66,35,29.68,29.59,7,1,7,0.00
2013-3-30,76,58,42,49,44,38,86,62,37,29.72,29.52,11,2,11,0.00
2013-3-31,77,58,43,48,43,38,85,61,31,29.55,29.36,10,2,10,0.00
2013-4-1,67,59,52,52,48,46,83,69,51,29.58,29.43,11,2,11,0.00
2013-4-2,68,59,53,50,47,44,78,65,46,29.64,29.57,13,3,13,0.00
2013-4-3,71,57,44,51,46,41,88,68,41,29.62,29.41,7,1,7,0.00
2013-4-4,60,56,53,55,50,46,89,81,70,29.41,29.20,7,1,7,0.16
2013-4-5,61,54,50,53,49,46,90,84,73,29.41,29.31,10,1,10,0.09
2013-4-6,54,49,45,48,45,42,92,86,73,29.47,29.27,8,1,8,0.43
2013-4-7,49,45,41,44,41,38,93,85,75,29.36,29.05,13,2,13,0.65
2013-4-8,60,49,43,45,40,37,88,72,54,29.73,29.36,14,2,14,0.00
2013-4-9,62,49,37,45,40,34,90,73,50,29.82,29.69,11,2,12,0.00
2013-4-10,62,53,47,52,44,37,91,71,52,29.73,29.50,18,3,18,0.11
2013-4-11,48,46,45,38,37,36,76,72,66,29.73,29.70,12,3,12,0.00
2013-5-15,62,60,57,49,48,46,72,64,60,0.00,0.00,12,3,12,0.00
2013-5-16,72,62,53,54,49,46,80,65,45,0.00,0.00,7,1,7,0.00
2013-5-17,68,61,53,50,47,44,86,59,43,0.00,0.00,10,2,10,0.00
2013-5-18,63,56,52,48,47,46,82,72,58,0.00,0.00,7,2,7,0.00
2013-5-19,59,56,54,50,49,48,81,78,72,0.00,0.00,8,2,8,0.00
2013-5-20,62,58,54,49,47,46,75,69,59,0.00,0.00,4,1,4,0.00
2013-5-22,48,48,47,43,43,43,85,85,83,0.00,0.00,1,0,1,0.00
2013-5-23,55,53,50,49,46,44,86,79,75,0.00,0.00,6,1,6,0.00
2013-5-24,53,52,51,47,46,45,82,80,78,0.00,0.00,3,1,3,0.00
2013-5-25,71,63,51,49,48,45,83,58,42,0.00,0.00,9,2,9,0.00
2013-5-26,70,64,54,54,50,48,88,63,48,0.00,0.00,12,3,12,0.00
2013-5-27,60,56,52,55,52,48,90,87,82,0.00,0.00,4,1,4,0.00
2013-5-29,64,58,52,53,50,48,89,77,60,0.00,0.00,12,2,12,0.00
2013-5-30,67,61,51,48,46,44,88,59,49,0.00,0.00,9,3,9,0.00
2013-5-31,72,61,49,50,47,45,87,63,40,0.00,0.00,9,2,9,0.00
2013-6-3,68,59,53,53,51,48,83,75,61,0.00,0.00,10,2,10,0.00
2013-6-4,88,76,55,56,49,43,77,41,23,0.00,0.00,7,1,7,0.00
2013-6-5,86,71,56,59,52,47,74,54,28,0.00,0.00,10,2,10,0.00
2013-6-6,86,78,69,60,57,54,67,49,39,0.00,0.00,10,3,10,0.00
2013-6-7,78,72,67,54,53,52,62,53,41,0.00,0.00,7,3,7,0.00
2013-6-9,65,65,64,48,48,48,55,54,53,0.00,0.00,7,4,7,0.00
2013-6-10,74,66,54,50,48,45,75,52,37,0.00,0.00,12,2,12,0.00
2013-6-11,66,59,54,48,45,43,72,61,48,0.00,0.00,10,2,10,0.00
2013-6-12,70,60,50,48,46,43,81,62,42,0.00,0.00,9,2,9,0.00
2013-6-13,67,59,52,51,48,46,86,69,51,0.00,0.00,9,2,9,0.00
2013-6-14,74,63,53,53,49,46,79,62,45,0.00,0.00,10,2,10,0.00
2013-6-15,87,68,50,55,49,43,83,57,24,0.00,0.00,9,1,9,0.00
2013-6-17,68,67,65,53,52,51,64,60,56,0.00,0.00,6,2,6,0.00
2013-6-18,60,59,58,48,48,47,70,66,64,0.00,0.00,6,2,6,0.00
2013-6-19,61,58,57,48,47,46,67,65,62,0.00,0.00,8,3,8,0.00
2013-6-20,64,61,60,52,51,50,73,70,60,0.00,0.00,6,1,6,0.00
2013-6-21,63,60,57,51,50,49,75,70,65,0.00,0.00,4,1,4,0.00
2013-6-23,74,68,63,61,59,56,90,76,55,0.00,0.00,7,1,7,0.00
2013-6-24,69,64,60,56,54,52,81,70,57,0.00,0.00,6,1,6,0.00
2013-6-25,64,60,58,60,56,53,90,85,80,0.00,0.00,4,0,4,0.00
2013-6-26,75,63,57,61,56,54,90,81,52,0.00,0.00,7,1,7,0.00
2013-6-27,84,75,61,63,60,56,85,62,46,0.00,0.00,10,2,10,0.00
2013-6-28,94,74,62,65,60,56,83,65,35,0.00,0.00,11,1,11,0.00
2013-6-29,90,78,69,64,60,58,71,56,35,0.00,0.00,11,2,11,0.00
2013-6-30,103,82,64,67,61,55,79,53,25,0.00,0.00,6,1,6,0.00
2013-7-1,91,80,70,68,65,61,76,60,46,0.00,0.00,13,2,13,0.00
2013-7-2,95,81,69,68,63,58,79,57,33,0.00,0.00,13,2,13,0.00
2013-7-3,88,75,65,60,54,44,72,52,26,0.00,0.00,11,3,11,0.00
2013-7-4,79,68,60,56,52,48,72,56,43,0.00,0.00,14,3,14,0.00
2013-7-5,75,67,60,55,52,48,70,59,49,0.00,0.00,14,3,14,0.00
2013-7-6,78,68,59,59,55,51,80,64,48,0.00,0.00,12,2,12,0.00
2013-7-7,82,70,61,60,58,56,83,66,47,0.00,0.00,15,3,15,0.00
2013-7-8,83,71,59,60,56,54,83,63,41,0.00,0.00,13,3,13,0.00
2013-7-9,90,75,60,64,59,53,83,60,39,0.00,0.00,12,2,12,0.00
2013-7-10,86,74,63,61,56,51,74,54,33,0.00,0.00,12,2,12,0.00
2013-7-11,79,67,57,52,49,46,73,54,37,0.00,0.00,13,3,13,0.00
2013-7-12,79,67,57,53,50,47,75,56,39,0.00,0.00,11,3,11,0.00
2013-7-13,88,70,56,53,47,26,79,51,12,0.00,0.00,7,1,7,0.00
2013-7-14,91,82,66,57,51,46,54,35,26,0.00,0.00,9,2,9,0.00
2013-7-15,95,77,59,53,48,42,65,41,18,0.00,0.00,8,1,8,0.00
2013-7-16,87,75,61,59,50,42,57,42,24,0.00,0.00,4,1,4,0.00
2013-7-17,83,74,64,58,55,51,74,54,35,0.00,0.00,12,3,12,0.00
2013-7-18,84,72,60,59,56,54,81,60,40,0.00,0.00,12,2,12,0.00
2013-7-19,84,73,62,62,58,54,77,62,45,0.00,0.00,13,3,13,0.00
2013-7-20,80,70,61,61,59,56,86,69,51,0.00,0.00,14,3,14,0.00
2013-7-21,86,71,60,60,57,54,85,64,37,0.00,0.00,14,3,14,0.00
2013-7-22,87,73,62,60,57,52,81,60,32,0.00,0.00,13,3,13,0.00
2013-7-23,90,76,60,62,58,53,81,57,29,0.00,0.00,12,2,12,0.00
2013-7-24,93,79,66,61,58,53,76,53,26,0.00,0.00,13,3,13,0.00
2013-7-25,92,78,66,59,58,54,72,51,30,0.00,0.00,10,2,10,0.00
2013-7-26,92,77,64,61,56,51,69,52,34,0.00,0.00,11,2,11,0.00
2013-7-27,83,71,59,54,50,45,72,50,34,0.00,0.00,15,3,15,0.00
2013-7-28,78,67,58,55,52,50,75,60,44,0.00,0.00,10,3,10,0.00
2013-7-29,82,69,59,56,53,50,77,60,34,0.00,0.00,10,2,10,0.00
2013-7-30,86,73,62,59,56,52,79,58,34,0.00,0.00,11,3,11,0.00
2013-7-31,79,71,65,62,59,55,76,66,54,0.00,0.00,9,2,9,0.00
2013-8-1,75,68,62,60,56,54,77,67,53,0.00,0.00,10,2,10,0.00
2013-8-2,72,66,61,55,53,51,71,63,53,0.00,0.00,8,3,8,0.00
2013-8-3,85,71,59,60,57,53,82,63,40,0.00,0.00,5,1,5,0.00
2013-8-4,94,77,61,63,58,54,79,57,27,0.00,0.00,3,1,3,0.00
2013-8-5,92,77,64,64,61,57,81,60,38,0.00,0.00,8,2,8,0.00
2013-8-6,92,78,63,62,57,47,79,52,28,0.00,0.00,8,2,8,0.00
2013-8-7,91,78,65,58,56,51,65,47,31,0.00,0.00,9,3,9,0.00
2013-8-8,81,73,65,63,59,55,74,62,51,0.00,0.00,13,3,16,0.00
2013-8-9,83,73,66,66,61,59,88,68,49,0.00,0.00,14,2,14,0.00
2013-8-10,80,71,65,64,62,60,89,75,55,0.00,0.00,8,2,8,0.00
2013-8-11,84,72,65,62,59,55,83,65,39,0.00,0.00,11,2,11,0.00
2013-8-12,84,71,61,62,58,55,83,65,44,0.00,0.00,10,2,10,0.00
2013-8-13,89,73,60,59,56,50,83,58,30,0.00,0.00,11,2,11,0.00
2013-8-14,85,73,62,59,54,48,70,52,34,0.00,0.00,9,2,9,0.00
2013-8-15,86,75,67,63,60,52,70,59,45,0.00,0.00,11,2,11,0.00
2013-8-16,82,74,68,67,64,61,88,71,55,0.00,0.00,8,1,8,0.00
2013-8-17,86,74,64,63,58,53,80,59,40,0.00,0.00,10,2,10,0.00
2013-8-18,88,74,64,61,58,55,83,61,37,0.00,0.00,12,3,12,0.00
2013-8-19,87,74,64,60,57,52,79,57,37,0.00,0.00,10,2,10,0.00
2013-8-20,86,72,61,59,56,54,79,60,38,0.00,0.00,10,2,10,0.00
2013-8-21,94,74,56,56,50,43,77,49,19,0.00,0.00,6,1,6,0.00
2013-8-22,80,70,62,64,54,46,74,56,45,0.00,0.00,7,1,7,0.00
2013-8-23,77,70,65,63,59,55,87,69,48,0.00,0.00,16,3,16,0.00
2013-8-24,80,70,62,58,56,52,80,61,43,0.00,0.00,11,2,11,0.00
2013-8-25,70,64,59,61,57,53,90,77,62,0.00,0.00,8,1,8,0.00
2013-8-26,79,67,59,62,57,51,91,72,45,0.00,0.00,10,1,10,0.00
2013-8-27,89,71,56,62,56,51,85,62,33,0.00,0.00,8,1,8,0.00
2013-8-28,84,74,66,64,60,58,80,63,46,0.00,0.00,10,2,10,0.00
2013-8-29,81,72,68,66,62,58,85,69,48,0.00,0.00,9,2,9,0.00
2013-8-30,84,73,65,63,60,56,80,66,43,0.00,0.00,10,2,10,0.00
2013-8-31,96,74,58,58,55,51,79,55,26,0.00,0.00,7,1,7,0.00
2013-9-1,86,74,64,62,58,54,75,58,41,0.00,0.00,12,2,12,0.00
2013-9-2,86,75,66,60,57,54,71,55,40,0.00,0.00,10,2,10,0.00
2013-9-3,83,73,67,61,58,55,74,59,46,0.00,0.00,11,2,11,0.00
2013-9-4,78,70,64,61,58,56,78,66,55,0.00,0.00,14,2,14,0.00
2013-9-5,76,68,61,61,59,56,86,73,58,0.00,0.00,13,2,13,0.00
2013-9-6,68,64,60,61,57,55,90,80,68,0.00,0.00,7,1,7,0.00
2013-9-7,85,68,55,61,56,51,89,69,37,0.00,0.00,4,1,4,0.00
2013-9-8,90,72,58,63,58,52,86,63,31,0.00,0.00,8,1,8,0.00
2013-9-9,84,72,60,64,61,55,86,70,48,0.00,0.00,13,2,13,0.00
2013-9-10,97,76,61,64,57,48,87,58,21,0.00,0.00,7,1,7,0.00
2013-9-11,100,78,61,61,55,53,75,50,23,0.00,0.00,6,1,6,0.00
2013-9-12,86,74,62,64,59,52,76,61,46,0.00,0.00,12,2,12,0.00
2013-9-13,82,73,66,64,62,61,85,70,51,0.00,0.00,9,3,15,0.00
2013-9-14,93,74,62,66,62,57,85,69,39,0.00,0.00,7,1,7,0.00
2013-9-15,75,70,66,63,60,56,84,71,60,0.00,0.00,11,3,11,0.00
2013-9-16,73,66,61,57,55,52,79,67,55,0.00,0.00,9,2,9,0.00
2013-9-17,71,63,59,56,52,48,84,69,48,0.00,0.00,10,2,10,0.00
2013-9-18,73,63,54,52,50,46,77,62,42,0.00,0.00,8,2,8,0.00
2013-9-19,85,63,46,50,44,40,83,56,24,0.00,0.00,6,1,6,0.00
2013-9-20,79,63,49,55,48,41,85,60,30,0.00,0.00,9,2,9,0.00
2013-9-21,73,62,56,58,54,52,89,76,52,0.00,0.00,9,1,9,0.00
2013-9-22,62,58,56,54,52,49,88,80,65,0.00,0.00,7,1,7,0.00
2013-9-23,63,59,55,54,52,50,89,79,68,0.00,0.00,8,1,8,0.00
2013-9-24,63,56,52,52,49,46,88,79,60,0.00,0.00,7,1,7,0.00
2013-9-25,64,56,51,50,48,46,83,75,57,0.00,0.00,8,2,8,0.00
2013-9-26,67,56,45,50,46,41,88,72,50,0.00,0.00,10,2,10,0.00
2013-9-27,61,55,50,52,49,45,90,81,64,0.00,0.00,7,1,7,0.00
2013-9-28,63,57,52,60,54,48,92,90,84,0.00,0.00,8,0,8,0.00
2013-9-29,56,53,51,53,50,48,93,90,86,0.00,0.00,12,0,12,0.00
2013-9-30,56,52,49,52,48,45,92,87,81,0.00,0.00,4,1,9,0.00
2013-10-1,58,51,47,50,47,44,92,87,70,0.00,0.00,4,0,6,0.00
2013-10-2,58,50,45,49,45,42,91,83,63,0.00,0.00,6,1,6,0.00
2013-10-3,62,51,42,48,44,39,90,77,55,0.00,0.00,10,2,10,0.00
2013-10-4,71,52,40,51,42,37,90,73,39,0.00,0.00,7,1,7,0.00
2013-10-5,73,54,41,49,43,37,88,70,35,0.00,0.00,6,1,6,0.00
2013-10-6,74,55,42,50,44,38,89,69,36,0.00,0.00,5,1,5,0.00
2013-10-7,59,55,52,52,48,44,89,78,65,0.00,0.00,8,1,8,0.00
2013-10-8,56,52,47,49,46,42,86,79,72,0.00,0.00,12,2,12,0.00
2013-10-9,62,50,41,48,43,36,89,78,51,0.00,0.00,5,1,5,0.00
2013-10-10,64,54,47,48,45,42,86,73,51,0.00,0.00,12,2,12,0.00
2013-10-11,60,53,48,48,45,43,87,75,54,0.00,0.00,8,1,8,0.00
2013-10-12,56,52,47,48,46,43,87,80,72,0.00,0.00,6,1,6,0.00
2013-10-13,68,51,42,48,42,38,88,74,39,0.00,0.00,4,1,4,0.00
2013-10-14,69,51,40,48,41,36,88,72,38,0.00,0.00,5,1,5,0.00
2013-10-15,69,50,37,45,39,33,87,68,34,0.00,0.00,5,1,5,0.00
2013-10-16,68,51,39,45,40,35,86,69,37,0.00,0.00,8,1,8,0.00
2013-10-17,71,52,40,48,41,36,88,69,37,0.00,0.00,6,1,6,0.00
2013-10-18,71,51,38,47,40,35,88,69,38,0.00,0.00,8,1,8,0.00
2013-10-19,69,51,38,48,41,35,88,71,43,0.00,0.00,5,1,5,0.00
2013-10-20,73,54,42,52,45,38,89,74,44,0.00,0.00,4,1,4,0.00
2013-10-21,74,56,43,50,45,39,88,70,41,0.00,0.00,4,1,4,0.00
2013-10-22,74,55,43,52,45,40,88,71,43,0.00,0.00,6,1,6,0.00
2013-10-23,73,54,43,53,45,39,89,74,45,0.00,0.00,6,1,6,0.00
2013-10-24,71,54,43,52,46,39,89,74,49,0.00,0.00,4,1,4,0.00
2013-10-25,68,55,44,52,48,40,91,77,52,0.00,0.00,9,1,9,0.00
2013-10-26,64,52,46,52,46,42,88,80,62,0.00,0.00,6,1,6,0.00
2013-10-27,55,51,49,48,46,42,88,82,69,0.00,0.00,13,2,13,0.00
2013-10-28,61,50,38,45,33,28,85,53,31,0.00,0.00,11,1,11,0.00
2013-10-29,60,43,32,37,31,27,82,64,35,0.00,0.00,5,1,5,0.00
2013-10-30,61,48,35,39,34,28,83,61,39,0.00,0.00,10,2,10,0.00
2013-10-31,59,54,49,50,46,37,88,74,55,0.00,0.00,8,2,8,0.00
2013-11-1,66,52,41,48,45,38,89,77,49,0.00,0.00,4,1,4,0.00
2013-11-2,54,50,42,48,44,37,91,82,64,0.00,0.00,13,2,13,0.00
2013-11-3,51,45,40,42,39,35,89,80,65,0.00,0.00,10,2,10,0.00
2013-11-4,47,43,36,42,39,33,89,86,79,0.00,0.00,3,0,3,0.00
2013-11-5,51,47,43,48,44,40,92,89,87,0.00,0.00,4,0,4,0.00
2013-11-6,52,49,46,48,46,43,91,88,82,0.00,0.00,5,0,5,0.00
2013-11-7,52,48,44,47,44,41,92,85,70,0.00,0.00,13,1,13,0.00
2013-11-8,53,49,43,46,44,40,89,83,71,0.00,0.00,6,1,6,0.00
2013-11-9,50,45,40,44,41,37,90,85,78,0.00,0.00,4,0,4,0.00
2013-11-10,56,48,43,46,42,39,89,82,69,0.00,0.00,4,1,4,0.00
2013-11-11,51,49,45,44,43,41,88,80,72,0.00,0.00,5,0,5,0.00
2013-11-12,55,50,47,48,46,42,91,86,73,0.00,0.00,5,1,5,0.00
2013-11-13,60,52,43,50,46,39,93,81,59,0.00,0.00,9,2,9,0.00
2013-11-14,54,47,41,44,41,38,89,79,65,0.00,0.00,10,2,10,0.00
2013-11-15,51,47,45,43,40,38,88,77,67,0.00,0.00,17,3,17,0.00
2013-11-16,49,46,43,44,40,37,90,80,72,0.00,0.00,15,3,15,0.00
2013-11-17,52,48,45,48,44,41,91,87,81,0.00,0.00,7,1,7,0.00
2013-11-18,54,49,44,48,45,41,92,87,77,0.00,0.00,3,0,3,0.00
2013-11-19,53,50,43,51,44,30,93,83,60,0.00,0.00,10,2,10,0.00
2013-11-20,47,38,28,36,26,15,87,63,37,0.00,0.00,10,2,10,0.00
2013-11-21,43,31,23,25,18,12,80,61,29,0.00,0.00,11,2,11,0.00
2013-11-22,41,31,22,25,19,16,78,63,42,0.00,0.00,14,2,14,0.00
2013-11-23,44,32,24,29,22,18,79,66,39,0.00,0.00,8,1,8,0.00
2013-11-24,44,32,25,29,23,19,81,71,53,0.00,0.00,6,1,6,0.00
2013-11-25,44,33,25,31,25,21,85,73,51,0.00,0.00,6,1,6,0.00
2013-11-26,41,33,27,31,26,23,85,77,64,0.00,0.00,4,1,4,0.00
2013-11-27,44,35,30,33,28,26,86,77,57,0.00,0.00,4,1,4,0.00
2013-11-28,44,34,28,34,28,24,87,80,65,0.00,0.00,5,1,5,0.00
2013-11-29,44,35,28,41,31,24,90,84,78,0.00,0.00,7,1,7,0.00
2013-11-30,53,45,37,45,40,34,93,83,73,0.00,0.00,5,1,5,0.00
2013-12-1,56,51,44,51,48,41,94,88,81,0.00,0.00,12,2,12,0.00
2013-12-2,50,42,37,47,36,31,90,80,72,0.00,0.00,15,4,15,0.00
2013-12-3,42,34,26,33,26,19,88,73,48,0.00,0.00,5,1,8,0.00
2013-12-4,36,27,21,24,18,14,85,68,43,0.00,0.00,9,1,9,0.00
2013-12-5,28,22,17,19,15,11,82,74,58,0.00,0.00,7,1,7,0.00
2013-12-6,23,22,20,18,16,12,83,77,66,0.00,0.00,7,1,7,0.00
2013-12-7,25,18,8,13,7,2,76,63,44,0.00,0.00,10,2,10,0.00
2013-12-8,20,12,6,12,6,0,80,75,61,0.00,0.00,9,1,9,0.00
2013-12-9,36,23,10,30,17,5,84,77,65,0.00,0.00,11,2,11,0.00
2013-12-10,39,35,28,33,30,24,88,83,78,0.00,0.00,13,3,13,0.00
2013-12-11,36,29,24,25,23,20,87,79,61,0.00,0.00,8,2,8,0.00
2013-12-12,33,27,21,28,22,17,86,81,72,0.00,0.00,3,1,3,0.00
2013-12-13,51,39,32,45,35,27,90,84,78,0.00,0.00,4,1,4,0.00
2013-12-14,47,40,36,41,37,34,92,89,81,0.00,0.00,8,2,8,0.00
2013-12-15,52,47,40,45,42,37,90,82,76,0.00,0.00,9,5,9,0.00
2013-12-16,53,44,35,43,39,32,89,83,67,0.00,0.00,5,1,5,0.00
2013-12-17,42,36,31,37,32,28,92,86,79,0.00,0.00,12,3,12,0.00
2013-12-18,47,42,37,39,36,30,88,81,72,0.00,0.00,10,3,10,0.00
2013-12-19,41,34,29,31,28,25,88,79,59,0.00,0.00,4,1,4,0.00
2013-12-20,50,40,34,43,34,26,87,80,63,0.00,0.00,16,2,16,0.00
2013-12-21,52,49,47,44,42,41,83,78,71,0.00,0.00,14,3,14,0.00
2013-12-22,54,50,47,46,44,42,85,81,73,0.00,0.00,11,2,11,0.00
2013-12-23,56,50,44,48,44,37,86,80,69,0.00,0.00,18,3,18,0.00
2013-12-24,50,40,32,39,34,28,91,80,62,0.00,0.00,6,1,6,0.00
2013-12-25,39,32,28,33,29,25,90,86,77,0.00,0.00,3,1,3,0.00
2013-12-26,37,32,28,32,28,25,91,88,82,0.00,0.00,3,1,5,0.00
2013-12-27,44,35,29,40,32,26,91,88,81,0.00,0.00,12,1,12,0.00
2013-12-28,48,39,33,40,35,31,92,86,73,0.00,0.00,10,1,10,0.00
2013-12-29,39,34,31,34,31,29,92,89,82,0.00,0.00,4,0,4,0.00
2013-12-30,40,36,33,34,32,30,92,86,79,0.00,0.00,7,1,7,0.00
2013-12-31,51,43,34,40,37,31,92,79,63,0.00,0.00,13,2,13,0.00
2014-1-1,46,39,33,39,34,30,91,85,77,0.00,0.00,10,1,10,0.00
2014-1-2,51,41,36,43,36,33,89,83,68,0.00,0.00,8,1,8,0.00